createdAt,value
2019-04-23T00:00:13.597Z,64.20
2019-04-23T00:02:50.805Z,64.30
2019-04-23T00:05:29.580Z,64.30
2019-04-23T00:07:59.165Z,64.30
2019-04-23T00:12:54.270Z,64.50
2019-04-23T00:15:30.428Z,65.00
2019-04-23T00:18:09.651Z,64.70
2019-04-23T00:20:36.103Z,64.70
2019-04-23T00:25:56.173Z,65.00
2019-04-23T00:33:25.036Z,65.60
2019-04-23T00:35:50.114Z,65.80
2019-04-23T00:38:28.710Z,66.10
2019-04-23T00:41:09.318Z,66.50
2019-04-23T00:43:30.265Z,66.70
2019-04-23T00:45:59.788Z,67.10
2019-04-23T00:53:26.942Z,67.20
2019-04-23T00:56:21.941Z,67.30
2019-04-23T00:58:36.510Z,67.30
2019-04-23T01:01:07.409Z,67.20
2019-04-23T01:03:33.810Z,67.50
2019-04-23T01:06:26.604Z,67.80
2019-04-23T01:08:55.139Z,67.80
2019-04-23T01:11:27.738Z,67.70
2019-04-23T01:13:54.098Z,67.80
2019-04-23T01:16:28.287Z,68.00
2019-04-23T01:19:24.575Z,68.20
2019-04-23T01:21:32.659Z,68.10
2019-04-23T01:24:12.274Z,68.50
2019-04-23T01:27:32.300Z,68.60
2019-04-23T01:29:58.524Z,68.80
2019-04-23T01:32:25.653Z,69.20
2019-04-23T01:34:59.496Z,68.90
2019-04-23T01:37:26.759Z,68.90
2019-04-23T01:39:57.576Z,69.20
2019-04-23T01:42:39.564Z,69.70
2019-04-23T01:45:01.937Z,69.70
2019-04-23T01:47:31.717Z,70.00
2019-04-23T01:50:08.200Z,70.00
2019-04-23T01:52:41.761Z,70.30
2019-04-23T01:55:04.015Z,70.40
2019-04-23T01:57:40.910Z,70.30
2019-04-23T02:00:10.276Z,70.20
2019-04-23T02:05:09.370Z,70.40
2019-04-23T02:07:43.852Z,70.60
2019-04-23T02:10:17.053Z,70.90
2019-04-23T02:12:42.101Z,71.30
2019-04-23T02:15:15.150Z,71.20
2019-04-23T02:17:47.195Z,71.30
2019-04-23T02:20:18.843Z,71.20
2019-04-23T02:22:58.682Z,71.30
2019-04-23T02:25:40.894Z,71.70
2019-04-23T02:28:06.058Z,72.20
2019-04-23T02:38:11.680Z,74.10
2019-04-23T02:40:48.197Z,73.30
2019-04-23T02:43:12.632Z,73.70
2019-04-23T02:45:48.472Z,73.90
2019-04-23T02:48:19.408Z,73.90
2019-04-23T02:53:37.533Z,74.60
2019-04-23T02:58:23.187Z,75.20
2019-04-23T03:01:06.852Z,76.20
2019-04-23T03:03:25.123Z,75.50
2019-04-23T03:05:51.102Z,75.80
2019-04-23T03:10:59.621Z,76.40
2019-04-23T03:24:01.627Z,77.70
2019-04-23T03:26:55.705Z,77.80
2019-04-23T03:29:22.002Z,78.00
2019-04-23T03:39:21.061Z,78.40
2019-04-23T03:41:53.905Z,78.80
2019-04-23T03:44:22.433Z,79.20
2019-04-23T03:49:21.452Z,80.00
2019-04-23T03:54:31.924Z,80.50
2019-04-23T04:07:22.633Z,81.30
2019-04-23T04:09:34.295Z,81.20
2019-04-23T04:12:07.978Z,81.50
2019-04-23T04:14:38.137Z,81.50
2019-04-23T04:17:09.661Z,81.60
2019-04-23T04:22:11.429Z,82.00
2019-04-23T04:24:40.103Z,81.90
2019-04-23T04:29:47.113Z,81.80
2019-04-23T04:32:24.661Z,81.80
2019-04-23T04:35:10.523Z,81.50
2019-04-23T04:42:12.056Z,80.70
2019-04-23T04:45:09.640Z,80.50
2019-04-23T04:47:25.773Z,80.50
2019-04-23T04:49:51.371Z,80.50
2019-04-23T04:54:29.099Z,80.50
2019-04-23T05:00:06.774Z,80.10
2019-04-23T05:02:35.478Z,79.90
2019-04-23T05:05:01.554Z,79.60
2019-04-23T05:07:30.466Z,79.50
2019-04-23T05:12:23.003Z,79.20
2019-04-23T05:14:58.860Z,78.90
2019-04-23T05:17:44.929Z,78.90
2019-04-23T05:20:04.981Z,78.80
2019-04-23T05:22:39.947Z,78.60
2019-04-23T05:24:57.200Z,78.30
2019-04-23T05:27:40.638Z,77.80
2019-04-23T05:30:07.754Z,77.60
2019-04-23T05:32:32.796Z,77.90
2019-04-23T05:35:03.157Z,77.60
2019-04-23T05:37:50.592Z,76.50
2019-04-23T05:40:22.449Z,77.00
2019-04-23T05:42:39.855Z,77.00
2019-04-23T05:45:09.755Z,76.20
2019-04-23T05:47:47.472Z,75.90
2019-04-23T05:50:18.613Z,75.10
2019-04-23T05:52:45.861Z,74.60
2019-04-23T05:57:42.489Z,74.20
2019-04-23T06:00:16.126Z,74.00
2019-04-23T06:02:53.743Z,73.30
2019-04-23T06:05:21.639Z,73.10
2019-04-23T06:07:47.307Z,73.10
2019-04-23T06:10:18.117Z,72.80
2019-04-23T06:12:43.527Z,72.40
2019-04-23T06:15:20.302Z,71.90
2019-04-23T06:17:57.709Z,71.80
2019-04-23T06:20:28.688Z,71.50
2019-04-23T06:22:56.056Z,70.80
2019-04-23T06:25:39.939Z,70.30
2019-04-23T06:28:03.509Z,69.50
2019-04-23T06:30:38.753Z,69.40
2019-04-23T06:33:04.333Z,69.30
2019-04-23T06:35:28.983Z,68.90
2019-04-23T06:40:34.298Z,68.80
2019-04-23T06:43:28.173Z,68.40
2019-04-23T06:45:49.265Z,68.50
2019-04-23T06:48:27.683Z,67.70
2019-04-23T06:53:24.236Z,67.40
2019-04-23T06:56:03.846Z,66.70
2019-04-23T06:58:32.418Z,66.90
2019-04-23T07:01:03.420Z,66.90
2019-04-23T07:03:38.582Z,66.30
2019-04-23T07:09:05.727Z,66.60
2019-04-23T07:13:53.178Z,65.50
2019-04-23T07:16:16.167Z,65.30
2019-04-23T07:18:46.973Z,64.80
2019-04-23T07:24:00.721Z,64.40
2019-04-23T07:26:29.790Z,64.60
2019-04-23T07:28:53.285Z,64.30
2019-04-23T07:36:32.676Z,63.00
2019-04-23T07:39:20.584Z,62.70
2019-04-23T07:41:54.828Z,62.20
2019-04-23T07:44:29.726Z,62.80
2019-04-23T07:47:11.806Z,62.10
2019-04-23T07:49:30.704Z,62.10
2019-04-23T07:52:12.864Z,62.20
2019-04-23T07:54:42.013Z,61.60
2019-04-23T07:57:12.254Z,61.80
2019-04-23T07:59:45.446Z,61.40
2019-04-23T08:02:16.015Z,61.20
2019-04-23T08:04:56.554Z,60.50
2019-04-23T08:20:47.407Z,47.90
2019-04-23T08:23:25.747Z,45.90
2019-04-23T08:26:23.888Z,49.10
2019-04-23T08:28:52.111Z,51.80
2019-04-23T08:31:15.120Z,53.60
2019-04-23T08:33:51.294Z,55.50
2019-04-23T08:36:25.452Z,56.30
2019-04-23T08:38:48.126Z,56.80
2019-04-23T08:41:27.034Z,57.60
2019-04-23T08:44:09.218Z,57.80
2019-04-23T08:46:56.887Z,58.00
2019-04-23T08:49:40.389Z,57.80
2019-04-23T08:54:53.452Z,57.70
2019-04-23T08:57:08.984Z,57.70
2019-04-23T09:04:50.325Z,57.60
2019-04-23T09:07:16.720Z,57.30
2019-04-23T09:12:18.774Z,57.10
2019-04-23T09:14:46.582Z,57.30
2019-04-23T09:17:20.343Z,57.60
2019-04-23T09:20:06.528Z,57.30
2019-04-23T09:22:22.945Z,56.80
2019-04-23T09:30:02.689Z,55.80
2019-04-23T09:32:37.656Z,55.10
2019-04-23T09:37:48.830Z,54.00
2019-04-23T09:40:54.919Z,54.30
2019-04-23T09:43:12.120Z,54.30
2019-04-23T09:45:56.146Z,52.70
2019-04-23T09:48:18.353Z,52.50
2019-04-23T09:50:57.133Z,52.10
2019-04-23T09:53:27.923Z,51.80
2019-04-23T09:55:57.945Z,51.20
2019-04-23T09:58:21.856Z,51.60
2019-04-23T10:01:25.858Z,50.70
2019-04-23T10:03:44.054Z,51.20
2019-04-23T10:06:11.771Z,51.60
2019-04-23T10:08:39.531Z,51.00
2019-04-23T10:11:05.451Z,50.50
2019-04-23T10:13:36.421Z,50.70
2019-04-23T10:16:06.858Z,50.40
2019-04-23T10:18:37.346Z,49.70
2019-04-23T10:21:07.763Z,49.40
2019-04-23T10:23:37.226Z,50.10
2019-04-23T10:26:07.909Z,50.20
2019-04-23T10:28:45.064Z,50.50
2019-04-23T10:31:14.623Z,50.40
2019-04-23T10:33:44.137Z,50.70
2019-04-23T11:05:04.278Z,30.50
2019-04-23T11:10:14.597Z,33.10
2019-04-23T11:15:28.661Z,33.30
2019-04-23T11:39:12.728Z,39.90
2019-04-23T11:41:56.870Z,40.50
2019-04-23T11:49:29.546Z,42.60
2019-04-23T11:51:53.990Z,43.10
2019-04-23T11:54:21.360Z,43.50
2019-04-23T11:59:25.763Z,44.00
2019-04-23T12:02:06.397Z,45.00
2019-04-23T12:04:57.656Z,45.60
2019-04-23T12:07:26.297Z,46.10
2019-04-23T12:10:07.119Z,45.70
2019-04-23T12:12:33.073Z,45.70
2019-04-23T12:15:11.728Z,45.30
2019-04-23T12:17:45.997Z,45.90
2019-04-23T12:23:04.295Z,45.50
2019-04-23T12:30:18.998Z,44.90
2019-04-23T12:35:21.474Z,45.20
2019-04-23T12:37:58.678Z,44.90
2019-04-23T12:40:25.019Z,44.60
2019-04-23T12:45:29.134Z,44.40
2019-04-23T12:55:40.351Z,45.10
2019-04-23T13:02:57.194Z,44.70
2019-04-23T13:05:31.474Z,44.50
2019-04-23T13:08:05.131Z,44.50
2019-04-23T13:10:41.823Z,44.20
2019-04-23T13:15:34.739Z,44.10
2019-04-23T13:20:51.501Z,44.30
2019-04-23T13:25:54.188Z,44.50
2019-04-23T13:28:21.077Z,44.60
2019-04-23T13:33:35.242Z,44.90
2019-04-23T13:36:01.714Z,45.00
2019-04-23T13:38:35.016Z,45.10
2019-04-23T13:41:01.381Z,45.10
2019-04-23T13:43:37.728Z,45.30
2019-04-23T13:46:06.886Z,45.90
2019-04-23T13:48:24.358Z,46.10
2019-04-23T13:51:09.336Z,46.60
2019-04-23T13:56:01.656Z,47.10
2019-04-23T13:58:38.809Z,47.20
2019-04-23T14:03:41.286Z,47.10
2019-04-23T14:06:27.578Z,47.20
2019-04-23T14:08:53.589Z,47.20
2019-04-23T14:11:30.849Z,47.40
2019-04-23T14:14:08.776Z,47.30
2019-04-23T14:16:39.798Z,47.00
2019-04-23T14:21:52.022Z,47.30
2019-04-23T14:29:04.449Z,47.70
2019-04-23T14:31:43.412Z,47.70
2019-04-23T14:36:43.147Z,47.90
2019-04-23T14:39:22.266Z,48.00
2019-04-23T14:41:44.061Z,48.00
2019-04-23T14:44:19.048Z,47.80
2019-04-23T14:46:58.155Z,47.50
2019-04-23T14:51:58.889Z,48.30
2019-04-23T14:57:07.883Z,49.20
2019-04-23T14:59:31.964Z,49.70
2019-04-23T15:02:08.703Z,50.00
2019-04-23T15:09:45.932Z,51.70
2019-04-23T15:12:15.774Z,51.80
2019-04-23T15:17:18.689Z,52.70
2019-04-23T15:22:21.763Z,53.60
2019-04-23T15:24:50.255Z,53.60
2019-04-23T15:29:39.075Z,54.10
2019-04-23T15:34:57.436Z,54.20
2019-04-23T15:37:41.506Z,54.40
2019-04-23T15:42:26.051Z,54.40
2019-04-23T15:45:01.596Z,55.20
2019-04-23T15:50:10.785Z,55.20
2019-04-23T15:55:01.514Z,54.70
2019-04-23T15:58:00.917Z,54.60
2019-04-23T15:59:58.660Z,55.00
2019-04-23T16:02:07.478Z,54.70
2019-04-23T16:04:37.921Z,54.80
2019-04-23T16:07:09.825Z,54.90
2019-04-23T16:10:09.225Z,55.00
2019-04-23T16:12:41.549Z,54.60
2019-04-23T16:15:07.835Z,54.80
2019-04-23T16:17:41.271Z,54.80
2019-04-23T16:22:39.693Z,55.10
2019-04-23T16:27:48.997Z,55.90
2019-04-23T16:35:34.639Z,57.80
2019-04-23T16:38:10.271Z,58.10
2019-04-23T16:40:33.129Z,58.70
2019-04-23T16:43:05.453Z,59.10
2019-04-23T16:45:45.425Z,59.60
2019-04-23T16:48:09.671Z,60.00
2019-04-23T16:50:41.662Z,60.50
2019-04-23T16:53:13.508Z,60.70
2019-04-23T16:55:38.400Z,61.40
2019-04-23T16:58:13.002Z,62.30
2019-04-23T17:00:38.304Z,63.00
2019-04-23T17:03:18.194Z,63.90
2019-04-23T17:05:40.932Z,63.40
2019-04-23T17:10:46.739Z,64.70
2019-04-23T17:15:53.899Z,65.30
2019-04-23T17:18:20.198Z,65.60
2019-04-23T17:20:47.617Z,65.50
2019-04-23T17:23:29.527Z,66.00
2019-04-23T17:25:51.777Z,66.10
2019-04-23T17:31:07.008Z,67.20
2019-04-23T17:33:27.593Z,68.00
2019-04-23T17:38:49.439Z,68.50
2019-04-23T17:41:19.396Z,69.00
2019-04-23T17:49:04.346Z,70.40
2019-04-23T17:51:30.956Z,70.50
2019-04-23T17:54:12.116Z,71.10
2019-04-23T17:56:55.823Z,71.50
2019-04-23T17:59:13.218Z,72.20
2019-04-23T18:01:54.407Z,72.80
2019-04-23T18:04:20.716Z,73.60
2019-04-23T18:06:50.884Z,73.80
2019-04-23T18:11:54.332Z,74.70
2019-04-23T18:14:18.218Z,74.80
2019-04-23T18:16:55.516Z,75.00
2019-04-23T18:24:59.363Z,75.60
2019-04-23T18:27:23.401Z,75.70
2019-04-23T18:30:21.415Z,76.20
2019-04-23T18:33:21.975Z,77.10
2019-04-23T18:40:21.480Z,78.00
2019-04-23T18:42:57.676Z,78.30
2019-04-23T18:48:11.052Z,79.40
2019-04-23T18:50:48.365Z,79.10
2019-04-23T18:53:09.585Z,80.00
2019-04-23T18:58:08.330Z,80.50
2019-04-23T19:03:34.268Z,80.90
2019-04-23T19:09:00.595Z,81.90
2019-04-23T19:11:39.926Z,82.60
2019-04-23T19:14:03.260Z,82.70
2019-04-23T19:16:31.418Z,83.30
2019-04-23T19:19:05.404Z,83.20
2019-04-23T19:26:59.829Z,82.90
2019-04-23T19:31:54.019Z,83.80
2019-04-23T19:39:29.494Z,84.90
2019-04-23T19:42:04.169Z,84.70
2019-04-23T19:44:34.463Z,85.60
2019-04-23T19:49:32.666Z,84.90
2019-04-23T19:51:59.414Z,84.50
2019-04-23T19:57:01.878Z,84.20
2019-04-23T19:59:50.581Z,84.30
2019-04-23T20:02:07.988Z,84.30
2019-04-23T20:09:50.939Z,84.50
2019-04-23T20:12:21.491Z,84.70
2019-04-23T20:17:31.094Z,85.00
2019-04-23T20:19:44.822Z,85.40
2019-04-23T20:22:25.453Z,86.00
2019-04-23T20:27:17.880Z,86.40
2019-04-23T20:32:27.348Z,86.90
2019-04-23T20:35:06.584Z,87.50
2019-04-23T20:40:08.647Z,88.10
2019-04-23T20:42:44.380Z,88.80
2019-04-23T20:47:48.643Z,89.20
2019-04-23T20:49:58.254Z,89.60
2019-04-23T20:52:43.135Z,89.50
2019-04-23T20:55:21.840Z,90.00
2019-04-23T20:57:45.556Z,90.10
2019-04-23T21:00:23.824Z,90.10
2019-04-23T21:03:16.950Z,90.10
2019-04-23T21:05:21.577Z,90.20
2019-04-23T21:07:57.519Z,90.20
2019-04-23T21:25:37.298Z,90.20
2019-04-23T21:28:08.617Z,90.20
2019-04-23T21:33:15.752Z,90.40
2019-04-23T21:36:04.413Z,90.30
2019-04-23T21:38:41.831Z,90.30
2019-04-23T21:41:09.343Z,90.40
2019-04-23T21:43:59.253Z,90.40
2019-04-23T21:46:14.556Z,90.40
2019-04-23T21:48:55.572Z,90.50
2019-04-23T21:51:27.717Z,91.10
2019-04-23T21:53:46.286Z,90.70
2019-04-23T21:56:15.315Z,90.70
2019-04-23T21:58:54.925Z,90.90
2019-04-23T22:06:25.609Z,91.00
2019-04-23T22:08:54.752Z,91.20
2019-04-23T22:11:43.861Z,91.20
2019-04-23T22:16:23.416Z,91.30
2019-04-23T22:21:33.175Z,91.70
2019-04-23T22:24:03.001Z,91.70
2019-04-23T22:26:33.510Z,91.80
2019-04-23T22:34:17.019Z,92.00
2019-04-23T22:36:29.713Z,92.00
2019-04-23T22:39:07.249Z,92.10
2019-04-23T22:41:38.018Z,92.20
2019-04-23T22:46:50.208Z,92.20
2019-04-23T22:49:23.049Z,92.20
2019-04-23T22:51:45.758Z,92.20
2019-04-23T22:54:09.858Z,92.20
2019-04-23T22:56:50.395Z,92.50
2019-04-23T22:59:18.299Z,92.60
2019-04-23T23:06:57.228Z,92.80
2019-04-23T23:09:26.326Z,93.00
2019-04-23T23:11:55.995Z,93.10
2019-04-23T23:16:50.400Z,93.00
2019-04-23T23:24:21.630Z,93.40
2019-04-23T23:26:57.231Z,93.40
2019-04-23T23:29:23.336Z,93.50
2019-04-23T23:32:16.887Z,93.50
2019-04-23T23:34:38.332Z,93.60
2019-04-23T23:37:00.361Z,93.50
2019-04-23T23:39:41.166Z,93.50
2019-04-23T23:42:02.908Z,93.50
2019-04-23T23:47:09.064Z,93.50
2019-04-23T23:49:33.889Z,93.50
2019-04-23T23:52:19.486Z,93.70
2019-04-23T23:54:36.145Z,93.70
2019-04-23T23:57:13.912Z,93.80
